Washington, DC (20027)

1:10 AM EDT on July 26, 2016 (GMT -0400)
Palisades / Foxhall Crescent | | Change Station

Elev 144 ft 38.92 °N, 77.10 °W | Updated 1 minute ago

Scattered Clouds
Scattered Clouds
76.2 °F
Feels Like 77 °F
N
0.0
Wind Variable Wind from SE

Today
High -- | Low -- °F
--% Chance of Precip.
Yesterday
High -- | Low -- °F
Precip. -- in
Pressure 29.91 in
Visibility 10.0 miles
Clouds Few 15000 ft
Scattered Clouds 25000 ft
Heat Index 77 °F
Dew Point 70 °F
Humidity 81%
Rainfall 0.00 in
Snow Depth Not available.
6:04 AM 8:24 PM
Waning Gibbous, 58% visible
METAR KDCA 260452Z COR 04007KT 10SM FEW150 SCT250 28/22 A2991 RMK AO2 SLP129 CONS LTGICCCCG DSNT SE CB DSNT SE MOV SE T02780222 403780272
Pressure 29.91 in
Visibility 10.0 miles
Clouds Few 15000 ft
Scattered Clouds 25000 ft
Heat Index 77 °F
Dew Point 70 °F
Humidity 81%
Rainfall 0.00 in
Snow Depth Not available.
6:04 AM 8:24 PM
Waning Gibbous, 58% visible
METAR KDCA 260452Z COR 04007KT 10SM FEW150 SCT250 28/22 A2991 RMK AO2 SLP129 CONS LTGICCCCG DSNT SE CB DSNT SE MOV SE T02780222 403780272

10-Day Weather Forecast

Almanac

Astronomy

Jul. 26, 2016 Rise Set
Actual Time
Civil Twilight
Nautical Twilight
Astronomical Twilight
Moon
Length of Visible Light
Length of Day
Tomorrow will be .
, % of the Moon is Illuminated

Today's Extremes

State Highs State Lows

Community

WunderPhotos

Upload Photos

1,927,538 photos uploaded!

WunderBlog® & News

Nearby

Air Quality

  Air Quality AQ Index Pollutant
Not available.

Snow Depth

Station Depth Elevation

Earthquake Activity

City Distance Mag. Time & Date
Minimum magnitude displayed is 2.5.

Coastal Water Temperatures

Place Temperature

Stations

Nearby Weather Stations

Station Location Temp. Windchill Dew Point Humidity Wind Precip. Elev Updated Type
                   

Watches & Warnings

There are currently no watches in effect.